sensor_id;sensor_type;location;lat;lon;timestamp;P1;durP1;ratioP1;P2;durP2;ratioP2
23596;SDS011;40226;50.874;4.394;2022-07-09T00:02:17;18.25;;;6.55;;
23596;SDS011;40226;50.874;4.394;2022-07-09T00:04:43;11.45;;;6.32;;
23596;SDS011;40226;50.874;4.394;2022-07-09T00:07:08;12.25;;;6.25;;
23596;SDS011;40226;50.874;4.394;2022-07-09T00:09:34;12.20;;;6.35;;
23596;SDS011;40226;50.874;4.394;2022-07-09T00:12:00;11.80;;;6.50;;
23596;SDS011;40226;50.874;4.394;2022-07-09T00:14:25;12.65;;;6.63;;
23596;SDS011;40226;50.874;4.394;2022-07-09T00:16:51;13.02;;;6.75;;
23596;SDS011;40226;50.874;4.394;2022-07-09T00:19:17;10.93;;;7.30;;
23596;SDS011;40226;50.874;4.394;2022-07-09T00:21:42;11.13;;;6.80;;
23596;SDS011;40226;50.874;4.394;2022-07-09T00:24:08;15.40;;;7.53;;
23596;SDS011;40226;50.874;4.394;2022-07-09T00:26:34;12.05;;;6.70;;
23596;SDS011;40226;50.874;4.394;2022-07-09T00:28:59;10.95;;;6.45;;
23596;SDS011;40226;50.874;4.394;2022-07-09T00:31:25;9.50;;;6.50;;
23596;SDS011;40226;50.874;4.394;2022-07-09T00:33:51;13.82;;;7.38;;
23596;SDS011;40226;50.874;4.394;2022-07-09T00:36:16;12.07;;;7.88;;
23596;SDS011;40226;50.874;4.394;2022-07-09T00:38:42;12.82;;;7.32;;
23596;SDS011;40226;50.874;4.394;2022-07-09T00:41:07;12.07;;;7.40;;
23596;SDS011;40226;50.874;4.394;2022-07-09T00:43:33;12.70;;;7.82;;
23596;SDS011;40226;50.874;4.394;2022-07-09T00:45:58;12.43;;;8.32;;
23596;SDS011;40226;50.874;4.394;2022-07-09T00:48:24;15.40;;;8.00;;
23596;SDS011;40226;50.874;4.394;2022-07-09T00:50:50;19.50;;;8.35;;
23596;SDS011;40226;50.874;4.394;2022-07-09T00:53:17;14.93;;;8.60;;
23596;SDS011;40226;50.874;4.394;2022-07-09T00:55:46;15.25;;;8.18;;
23596;SDS011;40226;50.874;4.394;2022-07-09T00:58:14;16.85;;;8.00;;
23596;SDS011;40226;50.874;4.394;2022-07-09T01:00:41;15.05;;;8.55;;
23596;SDS011;40226;50.874;4.394;2022-07-09T01:03:08;11.65;;;8.52;;
23596;SDS011;40226;50.874;4.394;2022-07-09T01:05:34;13.82;;;7.90;;
23596;SDS011;40226;50.874;4.394;2022-07-09T01:08:04;12.63;;;8.38;;
23596;SDS011;40226;50.874;4.394;2022-07-09T01:10:31;16.02;;;9.20;;
23596;SDS011;40226;50.874;4.394;2022-07-09T01:12:58;16.23;;;8.75;;
23596;SDS011;40226;50.874;4.394;2022-07-09T01:15:24;17.20;;;8.77;;
23596;SDS011;40226;50.874;4.394;2022-07-09T01:17:50;19.38;;;9.38;;
23596;SDS011;40226;50.874;4.394;2022-07-09T01:20:50;13.95;;;8.68;;
23596;SDS011;40226;50.874;4.394;2022-07-09T01:23:09;12.85;;;9.30;;
23596;SDS011;40226;50.874;4.394;2022-07-09T01:25:36;10.98;;;8.35;;
23596;SDS011;40226;50.874;4.394;2022-07-09T01:28:11;11.25;;;8.23;;
23596;SDS011;40226;50.874;4.394;2022-07-09T01:30:38;17.20;;;8.85;;
23596;SDS011;40226;50.874;4.394;2022-07-09T01:33:05;14.77;;;8.25;;
23596;SDS011;40226;50.874;4.394;2022-07-09T01:35:31;11.77;;;7.60;;
23596;SDS011;40226;50.874;4.394;2022-07-09T01:37:57;14.73;;;8.18;;
23596;SDS011;40226;50.874;4.394;2022-07-09T01:40:22;10.30;;;8.40;;
23596;SDS011;40226;50.874;4.394;2022-07-09T01:42:49;13.27;;;8.20;;
23596;SDS011;40226;50.874;4.394;2022-07-09T01:45:15;12.80;;;8.15;;
23596;SDS011;40226;50.874;4.394;2022-07-09T01:47:41;15.23;;;10.60;;
23596;SDS011;40226;50.874;4.394;2022-07-09T01:50:07;14.68;;;10.30;;
23596;SDS011;40226;50.874;4.394;2022-07-09T01:52:34;15.05;;;11.13;;
23596;SDS011;40226;50.874;4.394;2022-07-09T01:55:00;16.08;;;9.82;;
23596;SDS011;40226;50.874;4.394;2022-07-09T01:57:26;15.82;;;9.90;;
23596;SDS011;40226;50.874;4.394;2022-07-09T01:59:52;14.23;;;9.98;;
23596;SDS011;40226;50.874;4.394;2022-07-09T02:02:18;12.82;;;11.35;;
23596;SDS011;40226;50.874;4.394;2022-07-09T02:04:45;18.98;;;11.68;;
23596;SDS011;40226;50.874;4.394;2022-07-09T02:07:11;19.55;;;11.50;;
23596;SDS011;40226;50.874;4.394;2022-07-09T02:09:38;16.40;;;10.77;;
23596;SDS011;40226;50.874;4.394;2022-07-09T02:12:04;21.17;;;12.60;;
23596;SDS011;40226;50.874;4.394;2022-07-09T02:14:30;18.30;;;12.52;;
23596;SDS011;40226;50.874;4.394;2022-07-09T02:16:56;20.50;;;16.95;;
23596;SDS011;40226;50.874;4.394;2022-07-09T02:19:22;33.40;;;23.10;;
23596;SDS011;40226;50.874;4.394;2022-07-09T02:21:48;37.33;;;28.77;;
23596;SDS011;40226;50.874;4.394;2022-07-09T02:24:14;47.17;;;35.08;;
23596;SDS011;40226;50.874;4.394;2022-07-09T02:26:40;40.75;;;31.15;;
23596;SDS011;40226;50.874;4.394;2022-07-09T02:29:05;40.00;;;31.55;;
23596;SDS011;40226;50.874;4.394;2022-07-09T02:31:31;41.38;;;30.58;;
23596;SDS011;40226;50.874;4.394;2022-07-09T02:33:57;39.63;;;29.90;;
23596;SDS011;40226;50.874;4.394;2022-07-09T02:36:23;38.45;;;27.33;;
23596;SDS011;40226;50.874;4.394;2022-07-09T02:38:48;30.60;;;24.35;;
23596;SDS011;40226;50.874;4.394;2022-07-09T02:41:14;31.45;;;23.25;;
23596;SDS011;40226;50.874;4.394;2022-07-09T02:43:40;30.75;;;21.92;;
23596;SDS011;40226;50.874;4.394;2022-07-09T02:46:09;28.52;;;20.90;;
23596;SDS011;40226;50.874;4.394;2022-07-09T02:48:35;29.75;;;22.05;;
23596;SDS011;40226;50.874;4.394;2022-07-09T02:51:01;26.42;;;20.77;;
23596;SDS011;40226;50.874;4.394;2022-07-09T02:53:27;27.17;;;19.75;;
23596;SDS011;40226;50.874;4.394;2022-07-09T02:55:52;24.65;;;19.73;;
23596;SDS011;40226;50.874;4.394;2022-07-09T02:58:18;22.98;;;18.25;;
23596;SDS011;40226;50.874;4.394;2022-07-09T03:00:43;28.38;;;20.33;;
23596;SDS011;40226;50.874;4.394;2022-07-09T03:03:09;27.70;;;20.92;;
23596;SDS011;40226;50.874;4.394;2022-07-09T03:05:35;29.88;;;22.38;;
23596;SDS011;40226;50.874;4.394;2022-07-09T03:08:01;30.33;;;21.98;;
23596;SDS011;40226;50.874;4.394;2022-07-09T03:10:27;29.55;;;22.27;;
23596;SDS011;40226;50.874;4.394;2022-07-09T03:12:54;33.53;;;23.55;;
23596;SDS011;40226;50.874;4.394;2022-07-09T03:15:19;31.98;;;24.55;;
23596;SDS011;40226;50.874;4.394;2022-07-09T03:17:45;32.85;;;24.08;;
23596;SDS011;40226;50.874;4.394;2022-07-09T03:20:12;35.50;;;24.02;;
23596;SDS011;40226;50.874;4.394;2022-07-09T03:22:38;34.45;;;25.05;;
23596;SDS011;40226;50.874;4.394;2022-07-09T03:25:04;38.03;;;25.20;;
23596;SDS011;40226;50.874;4.394;2022-07-09T03:27:31;35.80;;;23.98;;
23596;SDS011;40226;50.874;4.394;2022-07-09T03:29:57;33.00;;;23.90;;
23596;SDS011;40226;50.874;4.394;2022-07-09T03:32:23;31.15;;;22.75;;
23596;SDS011;40226;50.874;4.394;2022-07-09T03:34:49;27.75;;;21.40;;
23596;SDS011;40226;50.874;4.394;2022-07-09T03:37:15;30.90;;;21.73;;
23596;SDS011;40226;50.874;4.394;2022-07-09T03:39:41;29.45;;;21.00;;
23596;SDS011;40226;50.874;4.394;2022-07-09T03:42:06;27.35;;;20.75;;
23596;SDS011;40226;50.874;4.394;2022-07-09T03:44:32;29.58;;;21.30;;
23596;SDS011;40226;50.874;4.394;2022-07-09T03:46:58;29.80;;;21.55;;
23596;SDS011;40226;50.874;4.394;2022-07-09T03:49:26;28.65;;;22.30;;
23596;SDS011;40226;50.874;4.394;2022-07-09T03:51:52;28.58;;;21.95;;
23596;SDS011;40226;50.874;4.394;2022-07-09T03:54:18;31.08;;;21.63;;
23596;SDS011;40226;50.874;4.394;2022-07-09T03:56:44;30.13;;;21.33;;
23596;SDS011;40226;50.874;4.394;2022-07-09T03:59:10;29.58;;;21.85;;
23596;SDS011;40226;50.874;4.394;2022-07-09T04:01:36;30.95;;;20.83;;
23596;SDS011;40226;50.874;4.394;2022-07-09T04:04:02;30.02;;;21.88;;
23596;SDS011;40226;50.874;4.394;2022-07-09T04:06:28;31.45;;;23.00;;
23596;SDS011;40226;50.874;4.394;2022-07-09T04:08:54;32.38;;;23.33;;
23596;SDS011;40226;50.874;4.394;2022-07-09T04:11:20;31.77;;;22.63;;
23596;SDS011;40226;50.874;4.394;2022-07-09T04:13:46;35.45;;;22.45;;
23596;SDS011;40226;50.874;4.394;2022-07-09T04:16:12;36.17;;;23.98;;
23596;SDS011;40226;50.874;4.394;2022-07-09T04:18:37;36.90;;;24.75;;
23596;SDS011;40226;50.874;4.394;2022-07-09T04:21:07;38.75;;;25.33;;
23596;SDS011;40226;50.874;4.394;2022-07-09T04:23:33;36.85;;;24.13;;
23596;SDS011;40226;50.874;4.394;2022-07-09T04:25:59;32.92;;;24.98;;
23596;SDS011;40226;50.874;4.394;2022-07-09T04:28:24;36.40;;;25.40;;
23596;SDS011;40226;50.874;4.394;2022-07-09T04:30:50;33.03;;;24.08;;
23596;SDS011;40226;50.874;4.394;2022-07-09T04:33:16;29.85;;;22.55;;
23596;SDS011;40226;50.874;4.394;2022-07-09T04:35:41;32.08;;;23.33;;
23596;SDS011;40226;50.874;4.394;2022-07-09T04:38:07;27.90;;;20.10;;
23596;SDS011;40226;50.874;4.394;2022-07-09T04:40:32;25.52;;;17.98;;
23596;SDS011;40226;50.874;4.394;2022-07-09T04:42:58;21.27;;;17.00;;
23596;SDS011;40226;50.874;4.394;2022-07-09T04:45:23;25.60;;;17.38;;
23596;SDS011;40226;50.874;4.394;2022-07-09T04:47:49;24.48;;;18.08;;
23596;SDS011;40226;50.874;4.394;2022-07-09T04:50:16;20.75;;;15.93;;
23596;SDS011;40226;50.874;4.394;2022-07-09T04:52:41;24.00;;;16.50;;
23596;SDS011;40226;50.874;4.394;2022-07-09T04:55:07;27.92;;;16.23;;
23596;SDS011;40226;50.874;4.394;2022-07-09T04:57:35;26.33;;;16.65;;
23596;SDS011;40226;50.874;4.394;2022-07-09T05:00:01;23.85;;;15.50;;
23596;SDS011;40226;50.874;4.394;2022-07-09T05:02:28;24.02;;;15.73;;
23596;SDS011;40226;50.874;4.394;2022-07-09T05:04:54;24.30;;;15.65;;
23596;SDS011;40226;50.874;4.394;2022-07-09T05:07:19;23.30;;;15.82;;
23596;SDS011;40226;50.874;4.394;2022-07-09T05:09:45;21.75;;;15.43;;
23596;SDS011;40226;50.874;4.394;2022-07-09T05:12:10;21.67;;;16.33;;
23596;SDS011;40226;50.874;4.394;2022-07-09T05:14:37;30.35;;;17.70;;
23596;SDS011;40226;50.874;4.394;2022-07-09T05:17:03;26.30;;;18.52;;
23596;SDS011;40226;50.874;4.394;2022-07-09T05:19:30;27.45;;;19.35;;
23596;SDS011;40226;50.874;4.394;2022-07-09T05:21:56;27.52;;;19.23;;
23596;SDS011;40226;50.874;4.394;2022-07-09T05:24:21;27.08;;;19.05;;
23596;SDS011;40226;50.874;4.394;2022-07-09T05:26:47;25.10;;;17.40;;
23596;SDS011;40226;50.874;4.394;2022-07-09T05:29:13;25.15;;;16.88;;
23596;SDS011;40226;50.874;4.394;2022-07-09T05:31:39;23.90;;;17.13;;
23596;SDS011;40226;50.874;4.394;2022-07-09T05:34:05;25.15;;;16.05;;
23596;SDS011;40226;50.874;4.394;2022-07-09T05:36:30;21.67;;;15.48;;
23596;SDS011;40226;50.874;4.394;2022-07-09T05:38:57;22.52;;;15.52;;
23596;SDS011;40226;50.874;4.394;2022-07-09T05:41:23;20.20;;;13.73;;
23596;SDS011;40226;50.874;4.394;2022-07-09T05:43:50;19.63;;;13.75;;
23596;SDS011;40226;50.874;4.394;2022-07-09T05:46:16;25.45;;;13.68;;
23596;SDS011;40226;50.874;4.394;2022-07-09T05:48:41;19.35;;;12.85;;
23596;SDS011;40226;50.874;4.394;2022-07-09T05:51:07;20.38;;;13.38;;
23596;SDS011;40226;50.874;4.394;2022-07-09T05:53:33;17.27;;;13.55;;
23596;SDS011;40226;50.874;4.394;2022-07-09T05:55:58;20.85;;;13.43;;
23596;SDS011;40226;50.874;4.394;2022-07-09T05:58:24;23.63;;;13.73;;
23596;SDS011;40226;50.874;4.394;2022-07-09T06:00:50;19.70;;;12.13;;
23596;SDS011;40226;50.874;4.394;2022-07-09T06:03:15;21.40;;;12.82;;
23596;SDS011;40226;50.874;4.394;2022-07-09T06:05:41;21.48;;;12.80;;
23596;SDS011;40226;50.874;4.394;2022-07-09T06:08:07;18.63;;;12.38;;
23596;SDS011;40226;50.874;4.394;2022-07-09T06:10:34;23.23;;;12.60;;
23596;SDS011;40226;50.874;4.394;2022-07-09T06:12:59;15.15;;;12.00;;
23596;SDS011;40226;50.874;4.394;2022-07-09T06:15:25;21.63;;;11.57;;
23596;SDS011;40226;50.874;4.394;2022-07-09T06:17:51;22.13;;;10.88;;
23596;SDS011;40226;50.874;4.394;2022-07-09T06:20:16;13.27;;;10.48;;
23596;SDS011;40226;50.874;4.394;2022-07-09T06:22:42;18.13;;;11.27;;
23596;SDS011;40226;50.874;4.394;2022-07-09T06:25:08;16.50;;;10.25;;
23596;SDS011;40226;50.874;4.394;2022-07-09T06:27:34;18.77;;;11.55;;
23596;SDS011;40226;50.874;4.394;2022-07-09T06:30:00;15.98;;;10.25;;
23596;SDS011;40226;50.874;4.394;2022-07-09T06:32:26;15.50;;;10.85;;
23596;SDS011;40226;50.874;4.394;2022-07-09T06:34:51;17.25;;;9.95;;
23596;SDS011;40226;50.874;4.394;2022-07-09T06:37:17;13.73;;;9.95;;
23596;SDS011;40226;50.874;4.394;2022-07-09T06:39:43;13.93;;;10.32;;
23596;SDS011;40226;50.874;4.394;2022-07-09T06:42:12;13.15;;;9.88;;
23596;SDS011;40226;50.874;4.394;2022-07-09T06:44:39;16.65;;;10.27;;
23596;SDS011;40226;50.874;4.394;2022-07-09T06:47:05;19.67;;;9.60;;
23596;SDS011;40226;50.874;4.394;2022-07-09T06:49:32;14.27;;;9.32;;
23596;SDS011;40226;50.874;4.394;2022-07-09T06:51:58;13.05;;;8.73;;
23596;SDS011;40226;50.874;4.394;2022-07-09T06:54:23;12.98;;;9.50;;
23596;SDS011;40226;50.874;4.394;2022-07-09T06:56:49;13.00;;;9.15;;
23596;SDS011;40226;50.874;4.394;2022-07-09T06:59:14;13.02;;;8.70;;
23596;SDS011;40226;50.874;4.394;2022-07-09T07:01:41;12.80;;;9.05;;
23596;SDS011;40226;50.874;4.394;2022-07-09T07:04:07;13.05;;;8.70;;
23596;SDS011;40226;50.874;4.394;2022-07-09T07:06:33;11.55;;;8.55;;
23596;SDS011;40226;50.874;4.394;2022-07-09T07:08:58;14.43;;;7.53;;
23596;SDS011;40226;50.874;4.394;2022-07-09T07:11:24;13.27;;;8.55;;
23596;SDS011;40226;50.874;4.394;2022-07-09T07:13:50;13.20;;;8.38;;
23596;SDS011;40226;50.874;4.394;2022-07-09T07:16:16;12.18;;;8.18;;
23596;SDS011;40226;50.874;4.394;2022-07-09T07:18:42;14.65;;;8.15;;
23596;SDS011;40226;50.874;4.394;2022-07-09T07:21:07;12.45;;;8.00;;
23596;SDS011;40226;50.874;4.394;2022-07-09T07:23:33;11.00;;;7.78;;
23596;SDS011;40226;50.874;4.394;2022-07-09T07:25:59;14.77;;;7.82;;
23596;SDS011;40226;50.874;4.394;2022-07-09T07:28:25;13.05;;;7.90;;
23596;SDS011;40226;50.874;4.394;2022-07-09T07:30:51;11.75;;;7.50;;
23596;SDS011;40226;50.874;4.394;2022-07-09T07:33:17;12.40;;;7.53;;
23596;SDS011;40226;50.874;4.394;2022-07-09T07:35:45;10.93;;;7.70;;
23596;SDS011;40226;50.874;4.394;2022-07-09T07:38:11;14.75;;;7.72;;
23596;SDS011;40226;50.874;4.394;2022-07-09T07:40:38;12.88;;;7.72;;
23596;SDS011;40226;50.874;4.394;2022-07-09T07:43:03;12.18;;;8.90;;
23596;SDS011;40226;50.874;4.394;2022-07-09T07:45:29;13.52;;;8.95;;
23596;SDS011;40226;50.874;4.394;2022-07-09T07:47:55;14.52;;;8.98;;
23596;SDS011;40226;50.874;4.394;2022-07-09T07:50:21;11.60;;;9.00;;
23596;SDS011;40226;50.874;4.394;2022-07-09T07:52:48;13.02;;;9.32;;
23596;SDS011;40226;50.874;4.394;2022-07-09T07:55:14;12.65;;;9.15;;
23596;SDS011;40226;50.874;4.394;2022-07-09T07:57:40;13.68;;;8.57;;
23596;SDS011;40226;50.874;4.394;2022-07-09T08:00:05;12.57;;;8.18;;
23596;SDS011;40226;50.874;4.394;2022-07-09T08:02:32;11.55;;;8.43;;
23596;SDS011;40226;50.874;4.394;2022-07-09T08:04:59;13.57;;;9.15;;
23596;SDS011;40226;50.874;4.394;2022-07-09T08:07:25;14.95;;;9.55;;
23596;SDS011;40226;50.874;4.394;2022-07-09T08:09:51;14.85;;;9.98;;
23596;SDS011;40226;50.874;4.394;2022-07-09T08:12:16;15.30;;;9.88;;
23596;SDS011;40226;50.874;4.394;2022-07-09T08:14:42;17.67;;;9.93;;
23596;SDS011;40226;50.874;4.394;2022-07-09T08:17:08;14.57;;;10.77;;
23596;SDS011;40226;50.874;4.394;2022-07-09T08:19:33;12.10;;;10.13;;
23596;SDS011;40226;50.874;4.394;2022-07-09T08:21:59;14.30;;;9.80;;
23596;SDS011;40226;50.874;4.394;2022-07-09T08:24:25;16.08;;;10.40;;
23596;SDS011;40226;50.874;4.394;2022-07-09T08:26:51;13.23;;;9.93;;
23596;SDS011;40226;50.874;4.394;2022-07-09T08:29:17;14.23;;;9.88;;
23596;SDS011;40226;50.874;4.394;2022-07-09T08:31:44;19.23;;;11.20;;
23596;SDS011;40226;50.874;4.394;2022-07-09T08:34:09;14.82;;;10.50;;
23596;SDS011;40226;50.874;4.394;2022-07-09T08:36:35;17.00;;;11.18;;
23596;SDS011;40226;50.874;4.394;2022-07-09T08:39:01;16.42;;;11.05;;
23596;SDS011;40226;50.874;4.394;2022-07-09T08:41:27;16.27;;;11.77;;
23596;SDS011;40226;50.874;4.394;2022-07-09T08:43:53;16.88;;;11.73;;
23596;SDS011;40226;50.874;4.394;2022-07-09T08:46:20;15.38;;;12.40;;
23596;SDS011;40226;50.874;4.394;2022-07-09T08:48:46;16.38;;;11.93;;
23596;SDS011;40226;50.874;4.394;2022-07-09T08:51:12;20.48;;;13.20;;
23596;SDS011;40226;50.874;4.394;2022-07-09T08:53:42;17.38;;;12.27;;
23596;SDS011;40226;50.874;4.394;2022-07-09T08:56:10;14.23;;;10.60;;
23596;SDS011;40226;50.874;4.394;2022-07-09T08:58:37;16.75;;;11.60;;
23596;SDS011;40226;50.874;4.394;2022-07-09T09:01:04;21.27;;;13.95;;
23596;SDS011;40226;50.874;4.394;2022-07-09T09:03:32;15.50;;;12.38;;
23596;SDS011;40226;50.874;4.394;2022-07-09T09:06:04;12.80;;;9.65;;
23596;SDS011;40226;50.874;4.394;2022-07-09T09:08:34;11.05;;;8.07;;
23596;SDS011;40226;50.874;4.394;2022-07-09T09:11:03;10.90;;;8.43;;
23596;SDS011;40226;50.874;4.394;2022-07-09T09:13:30;13.32;;;8.43;;
23596;SDS011;40226;50.874;4.394;2022-07-09T09:16:05;14.18;;;9.75;;
23596;SDS011;40226;50.874;4.394;2022-07-09T09:18:36;14.45;;;9.98;;
23596;SDS011;40226;50.874;4.394;2022-07-09T09:21:06;14.43;;;10.53;;
23596;SDS011;40226;50.874;4.394;2022-07-09T09:23:46;13.77;;;9.55;;
23596;SDS011;40226;50.874;4.394;2022-07-09T09:26:24;12.25;;;9.52;;
23596;SDS011;40226;50.874;4.394;2022-07-09T09:31:25;15.18;;;11.52;;
23596;SDS011;40226;50.874;4.394;2022-07-09T09:33:52;16.73;;;13.95;;
23596;SDS011;40226;50.874;4.394;2022-07-09T09:36:30;17.58;;;12.98;;
23596;SDS011;40226;50.874;4.394;2022-07-09T09:41:57;18.80;;;15.50;;
23596;SDS011;40226;50.874;4.394;2022-07-09T09:44:25;19.30;;;15.43;;
23596;SDS011;40226;50.874;4.394;2022-07-09T09:46:54;20.35;;;16.40;;
23596;SDS011;40226;50.874;4.394;2022-07-09T09:49:20;25.63;;;17.35;;
23596;SDS011;40226;50.874;4.394;2022-07-09T09:54:24;27.20;;;19.75;;
23596;SDS011;40226;50.874;4.394;2022-07-09T09:56:50;23.95;;;18.60;;
23596;SDS011;40226;50.874;4.394;2022-07-09T09:59:17;23.60;;;19.38;;
23596;SDS011;40226;50.874;4.394;2022-07-09T10:01:43;25.73;;;21.05;;
23596;SDS011;40226;50.874;4.394;2022-07-09T10:04:10;33.03;;;25.80;;
23596;SDS011;40226;50.874;4.394;2022-07-09T10:06:37;36.50;;;29.30;;
23596;SDS011;40226;50.874;4.394;2022-07-09T10:09:04;30.50;;;24.92;;
23596;SDS011;40226;50.874;4.394;2022-07-09T10:11:46;34.00;;;28.40;;
23596;SDS011;40226;50.874;4.394;2022-07-09T10:16:43;36.05;;;31.23;;
23596;SDS011;40226;50.874;4.394;2022-07-09T10:19:10;41.92;;;35.13;;
23596;SDS011;40226;50.874;4.394;2022-07-09T10:21:50;41.72;;;36.38;;
23596;SDS011;40226;50.874;4.394;2022-07-09T10:24:30;45.78;;;38.40;;
23596;SDS011;40226;50.874;4.394;2022-07-09T10:27:07;41.13;;;35.67;;
23596;SDS011;40226;50.874;4.394;2022-07-09T10:29:34;41.28;;;36.17;;
23596;SDS011;40226;50.874;4.394;2022-07-09T10:32:02;40.53;;;34.17;;
23596;SDS011;40226;50.874;4.394;2022-07-09T10:37:00;40.83;;;32.88;;
23596;SDS011;40226;50.874;4.394;2022-07-09T10:39:28;36.22;;;28.77;;
23596;SDS011;40226;50.874;4.394;2022-07-09T10:42:04;32.53;;;26.70;;
23596;SDS011;40226;50.874;4.394;2022-07-09T10:44:37;31.98;;;24.55;;
23596;SDS011;40226;50.874;4.394;2022-07-09T10:47:05;34.17;;;24.67;;
23596;SDS011;40226;50.874;4.394;2022-07-09T10:49:31;25.40;;;19.42;;
23596;SDS011;40226;50.874;4.394;2022-07-09T10:52:00;26.77;;;19.60;;
23596;SDS011;40226;50.874;4.394;2022-07-09T10:54:29;33.75;;;21.77;;
23596;SDS011;40226;50.874;4.394;2022-07-09T10:56:58;32.47;;;22.77;;
23596;SDS011;40226;50.874;4.394;2022-07-09T10:59:26;24.25;;;19.83;;
23596;SDS011;40226;50.874;4.394;2022-07-09T11:01:52;17.75;;;13.35;;
23596;SDS011;40226;50.874;4.394;2022-07-09T11:04:29;21.05;;;10.90;;
23596;SDS011;40226;50.874;4.394;2022-07-09T11:06:57;17.27;;;11.98;;
23596;SDS011;40226;50.874;4.394;2022-07-09T11:09:26;17.00;;;12.52;;
23596;SDS011;40226;50.874;4.394;2022-07-09T11:11:56;10.68;;;9.00;;
23596;SDS011;40226;50.874;4.394;2022-07-09T11:14:22;16.00;;;8.20;;
23596;SDS011;40226;50.874;4.394;2022-07-09T11:16:54;11.27;;;6.05;;
23596;SDS011;40226;50.874;4.394;2022-07-09T11:21:47;8.48;;;4.55;;
23596;SDS011;40226;50.874;4.394;2022-07-09T11:24:20;7.45;;;3.50;;
23596;SDS011;40226;50.874;4.394;2022-07-09T11:26:49;5.82;;;3.47;;
23596;SDS011;40226;50.874;4.394;2022-07-09T11:29:18;5.30;;;2.97;;
23596;SDS011;40226;50.874;4.394;2022-07-09T11:31:48;5.60;;;3.42;;
23596;SDS011;40226;50.874;4.394;2022-07-09T11:34:16;6.38;;;4.07;;
23596;SDS011;40226;50.874;4.394;2022-07-09T11:36:44;6.03;;;3.30;;
23596;SDS011;40226;50.874;4.394;2022-07-09T11:39:20;4.75;;;2.65;;
23596;SDS011;40226;50.874;4.394;2022-07-09T11:41:46;7.82;;;4.03;;
23596;SDS011;40226;50.874;4.394;2022-07-09T11:49:38;7.38;;;4.32;;
23596;SDS011;40226;50.874;4.394;2022-07-09T11:52:04;4.93;;;3.28;;
23596;SDS011;40226;50.874;4.394;2022-07-09T11:54:53;6.22;;;4.57;;
23596;SDS011;40226;50.874;4.394;2022-07-09T11:57:29;10.30;;;6.95;;
23596;SDS011;40226;50.874;4.394;2022-07-09T11:59:56;6.68;;;4.82;;
23596;SDS011;40226;50.874;4.394;2022-07-09T12:02:36;5.03;;;2.58;;
23596;SDS011;40226;50.874;4.394;2022-07-09T12:05:06;4.57;;;1.95;;
23596;SDS011;40226;50.874;4.394;2022-07-09T12:07:34;3.50;;;2.53;;
23596;SDS011;40226;50.874;4.394;2022-07-09T12:10:01;4.63;;;1.98;;
23596;SDS011;40226;50.874;4.394;2022-07-09T12:12:36;3.83;;;2.17;;
23596;SDS011;40226;50.874;4.394;2022-07-09T12:15:03;2.35;;;2.03;;
23596;SDS011;40226;50.874;4.394;2022-07-09T12:17:30;6.32;;;3.70;;
23596;SDS011;40226;50.874;4.394;2022-07-09T12:19:57;4.95;;;2.42;;
23596;SDS011;40226;50.874;4.394;2022-07-09T12:22:24;3.35;;;1.63;;
23596;SDS011;40226;50.874;4.394;2022-07-09T12:24:50;4.43;;;2.10;;
23596;SDS011;40226;50.874;4.394;2022-07-09T12:27:16;4.15;;;3.00;;
23596;SDS011;40226;50.874;4.394;2022-07-09T12:29:42;5.10;;;2.53;;
23596;SDS011;40226;50.874;4.394;2022-07-09T12:32:08;9.07;;;3.90;;
23596;SDS011;40226;50.874;4.394;2022-07-09T12:34:40;5.97;;;2.03;;
23596;SDS011;40226;50.874;4.394;2022-07-09T12:37:05;8.85;;;4.90;;
23596;SDS011;40226;50.874;4.394;2022-07-09T12:39:33;4.88;;;1.77;;
23596;SDS011;40226;50.874;4.394;2022-07-09T12:41:59;8.13;;;3.03;;
23596;SDS011;40226;50.874;4.394;2022-07-09T12:44:26;4.15;;;2.72;;
23596;SDS011;40226;50.874;4.394;2022-07-09T12:46:51;4.75;;;2.65;;
23596;SDS011;40226;50.874;4.394;2022-07-09T12:49:17;3.72;;;2.55;;
23596;SDS011;40226;50.874;4.394;2022-07-09T12:51:43;4.78;;;2.20;;
23596;SDS011;40226;50.874;4.394;2022-07-09T12:54:09;4.40;;;2.10;;
23596;SDS011;40226;50.874;4.394;2022-07-09T12:56:35;4.30;;;2.58;;
23596;SDS011;40226;50.874;4.394;2022-07-09T12:59:01;8.73;;;2.78;;
23596;SDS011;40226;50.874;4.394;2022-07-09T13:01:27;3.88;;;1.80;;
23596;SDS011;40226;50.874;4.394;2022-07-09T13:03:53;7.05;;;2.50;;
23596;SDS011;40226;50.874;4.394;2022-07-09T13:06:19;4.55;;;2.28;;
23596;SDS011;40226;50.874;4.394;2022-07-09T13:08:57;5.35;;;3.40;;
23596;SDS011;40226;50.874;4.394;2022-07-09T13:11:24;4.15;;;1.92;;
23596;SDS011;40226;50.874;4.394;2022-07-09T13:13:49;2.70;;;1.90;;
23596;SDS011;40226;50.874;4.394;2022-07-09T13:16:15;5.07;;;1.80;;
23596;SDS011;40226;50.874;4.394;2022-07-09T13:18:40;6.25;;;2.10;;
23596;SDS011;40226;50.874;4.394;2022-07-09T13:21:06;3.83;;;1.75;;
23596;SDS011;40226;50.874;4.394;2022-07-09T13:23:32;3.38;;;1.80;;
23596;SDS011;40226;50.874;4.394;2022-07-09T13:25:58;3.95;;;2.63;;
23596;SDS011;40226;50.874;4.394;2022-07-09T13:28:24;3.97;;;1.95;;
23596;SDS011;40226;50.874;4.394;2022-07-09T13:30:49;4.25;;;1.92;;
23596;SDS011;40226;50.874;4.394;2022-07-09T13:33:15;3.45;;;1.60;;
23596;SDS011;40226;50.874;4.394;2022-07-09T13:35:41;2.78;;;1.77;;
23596;SDS011;40226;50.874;4.394;2022-07-09T13:38:07;4.95;;;2.15;;
23596;SDS011;40226;50.874;4.394;2022-07-09T13:40:32;6.18;;;1.92;;
23596;SDS011;40226;50.874;4.394;2022-07-09T13:42:58;5.20;;;2.10;;
23596;SDS011;40226;50.874;4.394;2022-07-09T13:45:24;3.80;;;1.67;;
23596;SDS011;40226;50.874;4.394;2022-07-09T13:47:49;3.67;;;1.90;;
23596;SDS011;40226;50.874;4.394;2022-07-09T13:50:15;4.88;;;1.90;;
23596;SDS011;40226;50.874;4.394;2022-07-09T13:52:41;4.32;;;1.60;;
23596;SDS011;40226;50.874;4.394;2022-07-09T13:55:07;4.40;;;1.95;;
23596;SDS011;40226;50.874;4.394;2022-07-09T13:57:32;2.33;;;1.55;;
23596;SDS011;40226;50.874;4.394;2022-07-09T13:59:58;3.08;;;1.40;;
23596;SDS011;40226;50.874;4.394;2022-07-09T14:02:24;2.58;;;1.63;;
23596;SDS011;40226;50.874;4.394;2022-07-09T14:04:50;2.13;;;1.50;;
23596;SDS011;40226;50.874;4.394;2022-07-09T14:07:16;3.53;;;1.60;;
23596;SDS011;40226;50.874;4.394;2022-07-09T14:09:42;3.08;;;2.00;;
23596;SDS011;40226;50.874;4.394;2022-07-09T14:12:08;3.08;;;1.40;;
23596;SDS011;40226;50.874;4.394;2022-07-09T14:14:33;2.40;;;1.40;;
23596;SDS011;40226;50.874;4.394;2022-07-09T14:17:00;2.88;;;1.50;;
23596;SDS011;40226;50.874;4.394;2022-07-09T14:19:26;3.35;;;1.25;;
23596;SDS011;40226;50.874;4.394;2022-07-09T14:21:51;2.63;;;1.23;;
23596;SDS011;40226;50.874;4.394;2022-07-09T14:24:17;3.67;;;1.75;;
23596;SDS011;40226;50.874;4.394;2022-07-09T14:26:43;2.10;;;1.38;;
23596;SDS011;40226;50.874;4.394;2022-07-09T14:29:09;3.28;;;1.42;;
23596;SDS011;40226;50.874;4.394;2022-07-09T14:31:35;8.32;;;1.30;;
23596;SDS011;40226;50.874;4.394;2022-07-09T14:34:01;7.82;;;2.42;;
23596;SDS011;40226;50.874;4.394;2022-07-09T14:36:26;9.35;;;3.58;;
23596;SDS011;40226;50.874;4.394;2022-07-09T14:38:52;9.00;;;4.20;;
23596;SDS011;40226;50.874;4.394;2022-07-09T14:41:18;6.65;;;2.15;;
23596;SDS011;40226;50.874;4.394;2022-07-09T14:43:43;4.47;;;2.00;;
23596;SDS011;40226;50.874;4.394;2022-07-09T14:46:09;5.32;;;3.53;;
23596;SDS011;40226;50.874;4.394;2022-07-09T14:48:35;6.15;;;1.70;;
23596;SDS011;40226;50.874;4.394;2022-07-09T14:51:01;7.40;;;2.08;;